Time;durP1;ratioP1;P1;durP2;ratioP2;P2;SDS_P1;SDS_P2;PMS_P1;PMS_P2;Temp;Humidity;BMP_temperature;BMP_pressure;BME280_temperature;BME280_humidity;BME280_pressure;Samples;Min_cycle;Max_cycle;Signal;HPM_P1;HPM_P2
2021/07/23 00:01:20;;;;;;;1999.90;999.90;;;;;;;16.59;45.42;101428.59;4809880;29;96920;-72
2021/07/23 00:03:49;;;;;;;1999.90;999.90;;;;;;;16.58;45.34;101432.19;4809752;29;97583;-71
2021/07/23 00:06:31;;;;;;;1999.90;999.90;;;;;;;16.58;45.08;101426.81;4811420;29;100340;-71
2021/07/23 00:08:59;;;;;;;1999.90;999.90;;;;;;;16.58;45.00;101432.19;4796117;29;97893;-71
2021/07/23 00:11:28;;;;;;;1999.90;999.90;;;;;;;16.57;45.06;101433.06;4812664;29;96831;-71
2021/07/23 00:13:55;;;;;;;1999.90;999.90;;;;;;;16.53;45.14;101432.13;4810732;29;97948;-70
2021/07/23 00:16:23;;;;;;;1999.90;999.90;;;;;;;16.51;45.10;101436.59;4794229;29;99559;-71
2021/07/23 00:18:52;;;;;;;1999.90;999.90;;;;;;;16.51;45.17;101424.94;4808790;29;100471;-70
2021/07/23 00:21:20;;;;;;;1999.90;999.90;;;;;;;16.51;45.18;101433.91;4809686;29;98711;-70
2021/07/23 00:23:48;;;;;;;1999.90;999.90;;;;;;;16.50;44.95;101429.44;4794431;29;99060;-71
2021/07/23 00:26:18;;;;;;;1999.90;999.90;;;;;;;16.48;45.01;101430.31;4809175;29;100486;-71
2021/07/23 00:28:46;;;;;;;1999.90;999.90;;;;;;;16.50;44.82;101420.47;4797010;29;100513;-71
2021/07/23 00:31:14;;;;;;;1999.90;999.90;;;;;;;16.51;44.74;101416.88;4794541;29;97154;-71
2021/07/23 00:33:42;;;;;;;1999.90;999.90;;;;;;;16.51;44.53;101416.88;4813070;29;97178;-71
2021/07/23 00:36:12;;;;;;;1999.90;999.90;;;;;;;16.49;44.75;101419.56;4797311;29;100295;-71
2021/07/23 00:38:40;;;;;;;1999.90;999.90;;;;;;;16.48;44.82;101425.84;4792292;29;99312;-71
2021/07/23 00:41:08;;;;;;;1999.90;999.90;;;;;;;16.46;44.98;101419.56;4810042;29;96998;-71
2021/07/23 00:43:35;;;;;;;1999.90;999.90;;;;;;;16.45;44.92;101409.69;4808584;29;97075;-71
2021/07/23 00:46:04;;;;;;;1999.90;999.90;;;;;;;16.46;44.83;101419.56;4792574;29;99773;-71
2021/07/23 00:48:32;;;;;;;1999.90;999.90;;;;;;;16.44;44.94;101423.09;4809494;29;100406;-71
2021/07/23 00:51:01;;;;;;;1999.90;999.90;;;;;;;16.43;44.77;101415.94;4795019;29;97202;-71
2021/07/23 00:53:30;;;;;;;1999.90;999.90;;;;;;;16.42;44.86;101416.81;4793100;29;97773;-71
2021/07/23 00:55:59;;;;;;;1999.90;999.90;;;;;;;16.40;44.75;101421.28;4794602;29;98849;-71
2021/07/23 00:58:28;;;;;;;1999.90;999.90;;;;;;;16.37;44.63;101415.91;4809410;29;98930;-71
2021/07/23 01:00:59;;;;;;;1999.90;999.90;;;;;;;16.36;44.80;101422.16;4810455;29;97062;-71
2021/07/23 01:03:32;;;;;;;1999.90;999.90;;;;;;;16.34;44.57;101421.25;4808409;29;97218;-70
2021/07/23 01:06:02;;;;;;;1999.90;999.90;;;;;;;16.32;44.55;101421.25;4808426;29;101131;-70
2021/07/23 01:08:32;;;;;;;1999.90;999.90;;;;;;;16.28;44.69;101423.88;4793181;29;99295;-71
2021/07/23 01:11:00;;;;;;;1999.90;999.90;;;;;;;16.23;44.55;101420.28;4809786;29;97235;-70
2021/07/23 01:13:43;;;;;;;1999.90;999.90;;;;;;;16.20;44.72;101418.44;4794123;29;97723;-70
2021/07/23 01:16:13;;;;;;;1999.90;999.90;;;;;;;16.18;44.38;101416.66;4793880;29;98861;-71
2021/07/23 01:18:42;;;;;;;1999.90;999.90;;;;;;;16.18;44.26;101413.97;4792952;29;99632;-70
2021/07/23 01:21:10;;;;;;;1999.90;999.90;;;;;;;16.15;44.60;101413.91;4792995;29;97951;-71
2021/07/23 01:23:41;;;;;;;1999.90;999.90;;;;;;;16.14;44.13;101414.81;4794166;29;97724;-70
2021/07/23 01:26:28;;;;;;;1999.90;999.90;;;;;;;16.14;44.26;101414.81;4808623;29;99078;-71
2021/07/23 01:28:56;;;;;;;1999.90;999.90;;;;;;;16.08;44.49;101416.59;4806239;29;100747;-71
2021/07/23 01:31:25;;;;;;;1999.90;999.90;;;;;;;16.05;44.33;101410.25;4809305;29;97308;-71
2021/07/23 01:33:53;;;;;;;1999.90;999.90;;;;;;;16.01;44.17;101420.06;4819540;29;96915;-71
2021/07/23 01:36:23;;;;;;;1999.90;999.90;;;;;;;15.99;44.44;101416.47;4792135;29;99566;-71
2021/07/23 01:38:55;;;;;;;1999.90;999.90;;;;;;;15.95;44.37;101420.00;4793383;29;98837;-71
2021/07/23 01:41:24;;;;;;;1999.90;999.90;;;;;;;15.95;44.27;101409.25;4806822;29;97065;-71
2021/07/23 01:43:54;;;;;;;1999.90;999.90;;;;;;;15.93;44.42;101411.03;4808720;29;97484;-71
2021/07/23 01:46:23;;;;;;;1999.90;999.90;;;;;;;15.92;44.37;101414.59;4791373;29;99817;-71
2021/07/23 01:48:53;;;;;;;1999.90;999.90;;;;;;;15.90;44.15;101415.47;4811238;29;97899;-71
2021/07/23 01:51:26;;;;;;;1999.90;999.90;;;;;;;15.88;43.92;101417.25;4792811;29;97159;-71
2021/07/23 01:53:56;;;;;;;1999.90;999.90;;;;;;;15.86;44.00;101411.88;4806323;29;96904;-72
2021/07/23 01:56:26;;;;;;;1999.90;999.90;;;;;;;15.86;44.34;101411.88;4808253;29;101167;-71
2021/07/23 01:58:57;;;;;;;1999.90;999.90;;;;;;;15.84;43.91;101416.31;4790690;29;102130;-70
2021/07/23 02:01:28;;;;;;;1999.90;999.90;;;;;;;15.84;43.82;101416.31;4789885;29;97337;-71
2021/07/23 02:04:12;;;;;;;1999.90;999.90;;;;;;;15.84;43.69;101412.72;4813082;29;98560;-71
2021/07/23 02:06:40;;;;;;;1999.90;999.90;;;;;;;15.81;43.78;101410.03;4806051;29;97559;-71
2021/07/23 02:09:11;;;;;;;1999.90;999.90;;;;;;;15.39;44.72;101410.47;4792473;29;99692;-71
2021/07/23 02:11:49;;;;;;;1999.90;999.90;;;;;;;15.62;44.14;101406.25;4793731;29;96966;-71
2021/07/23 02:14:18;;;;;;;1999.90;999.90;;;;;;;15.25;44.61;101405.81;4808408;29;98664;-71
2021/07/23 02:16:46;;;;;;;1999.90;999.90;;;;;;;15.07;45.07;101404.69;4796872;29;97539;-70
2021/07/23 02:19:14;;;;;;;1999.90;999.90;;;;;;;14.94;45.69;101396.44;4810129;29;100568;-71
2021/07/23 02:21:50;;;;;;;1999.90;999.90;;;;;;;14.84;45.57;101402.59;4794019;29;97410;-71
2021/07/23 02:24:21;;;;;;;1999.90;999.90;;;;;;;15.17;44.60;101398.53;4805946;29;97162;-71
2021/07/23 02:26:49;;;;;;;1999.90;999.90;;;;;;;15.28;44.30;101397.78;4808635;29;99516;-71
2021/07/23 02:29:17;;;;;;;1999.90;999.90;;;;;;;15.32;44.54;101400.53;4793287;29;99459;-71
2021/07/23 02:31:48;;;;;;;1999.90;999.90;;;;;;;15.34;44.41;101393.41;4791895;29;97628;-71
2021/07/23 02:34:23;;;;;;;1999.90;999.90;;;;;;;15.35;44.09;101394.31;4792436;29;97020;-71
2021/07/23 02:36:54;;;;;;;1999.90;999.90;;;;;;;15.35;43.69;101389.84;4808380;29;99384;-71
2021/07/23 02:39:25;;;;;;;1999.90;999.90;;;;;;;15.37;43.61;101393.47;4811088;29;97699;-71
2021/07/23 02:41:58;;;;;;;1999.90;999.90;;;;;;;15.35;43.81;101397.00;4792811;29;99104;-70
2021/07/23 02:44:28;;;;;;;1999.90;999.90;;;;;;;15.32;43.67;101394.28;4806152;29;98535;-70
2021/07/23 02:46:56;;;;;;;1999.90;999.90;;;;;;;15.32;44.03;101395.16;4805122;29;100131;-71
2021/07/23 02:49:27;;;;;;;1999.90;999.90;;;;;;;15.32;43.74;101391.59;4795260;29;98032;-71
2021/07/23 02:51:56;;;;;;;1999.90;999.90;;;;;;;15.31;43.99;101396.06;4811633;29;97106;-69
2021/07/23 02:54:25;;;;;;;1999.90;999.90;;;;;;;15.31;43.56;101396.06;4810171;29;97800;-71
2021/07/23 02:56:53;;;;;;;1999.90;999.90;;;;;;;15.32;43.66;101395.16;4811500;29;97905;-71
2021/07/23 02:59:23;;;;;;;1999.90;999.90;;;;;;;15.31;43.82;101388.03;4794668;29;104003;-71
2021/07/23 03:01:55;;;;;;;1999.90;999.90;;;;;;;15.31;43.33;101387.09;4811683;29;97594;-70
2021/07/23 03:04:26;;;;;;;1999.90;999.90;;;;;;;15.29;43.76;101388.84;4810067;29;98755;-71
2021/07/23 03:06:54;;;;;;;1999.90;999.90;;;;;;;15.28;43.42;101387.06;4795402;29;99727;-70
2021/07/23 03:09:24;;;;;;;1999.90;999.90;;;;;;;15.26;43.34;101387.03;4808751;29;101117;-71
2021/07/23 03:11:55;;;;;;;1999.90;999.90;;;;;;;15.25;43.59;101379.84;4789256;29;96960;-71
2021/07/23 03:14:24;;;;;;;1999.90;999.90;;;;;;;15.25;43.57;101379.84;4795295;29;99018;-71
2021/07/23 03:17:03;;;;;;;1999.90;999.90;;;;;;;15.23;43.72;101373.56;4803304;29;97811;-71
2021/07/23 03:19:31;;;;;;;1999.90;999.90;;;;;;;15.23;43.63;101378.06;4802992;29;97692;-71
2021/07/23 03:21:59;;;;;;;1999.90;999.90;;;;;;;15.21;43.45;101375.34;4811857;29;97992;-70
2021/07/23 03:24:30;;;;;;;1999.90;999.90;;;;;;;15.22;43.22;101381.59;4794860;29;97506;-71
2021/07/23 03:26:59;;;;;;;1999.90;999.90;;;;;;;15.21;43.58;101380.69;4782887;29;99566;-71
2021/07/23 03:29:28;;;;;;;1999.90;999.90;;;;;;;15.17;43.54;101374.41;4810170;29;97639;-71
2021/07/23 03:31:56;;;;;;;1999.90;999.90;;;;;;;15.19;43.44;101374.44;4811225;29;98076;-71
2021/07/23 03:34:29;;;;;;;1999.90;999.90;;;;;;;15.19;43.33;101376.22;4809547;29;96400;-72
2021/07/23 03:37:09;;;;;;;1999.90;999.90;;;;;;;15.16;43.35;101365.47;4807553;29;100446;-71
2021/07/23 03:39:51;;;;;;;1999.90;999.90;;;;;;;15.12;43.35;101364.50;4794330;29;98873;-71
2021/07/23 03:42:23;;;;;;;1999.90;999.90;;;;;;;15.11;43.31;101373.44;4800917;29;97537;-71
2021/07/23 03:45:10;;;;;;;1999.90;999.90;;;;;;;15.07;43.48;101371.59;4794110;29;97361;-72
2021/07/23 03:47:38;;;;;;;1999.90;999.90;;;;;;;15.08;43.29;101373.41;4816459;29;99085;-74
2021/07/23 03:50:08;;;;;;;1999.90;999.90;;;;;;;15.06;43.31;101376.06;4817235;29;97551;-72
2021/07/23 03:52:39;;;;;;;1999.90;999.90;;;;;;;15.06;43.38;101373.38;4797806;29;98337;-72
2021/07/23 03:55:27;;;;;;;1999.90;999.90;;;;;;;15.06;43.27;101376.06;4815038;29;97371;-72
2021/07/23 03:57:55;;;;;;;1999.90;999.90;;;;;;;15.04;43.35;101375.16;4815778;29;97979;-72
2021/07/23 04:00:25;;;;;;;1999.90;999.90;;;;;;;15.03;43.32;101373.34;4816908;29;98022;-72
2021/07/23 04:02:56;;;;;;;1999.90;999.90;;;;;;;15.03;42.97;101376.03;4796739;29;98546;-72
2021/07/23 04:05:27;;;;;;;1999.90;999.90;;;;;;;15.03;43.24;101370.66;4798585;29;99231;-71
2021/07/23 04:07:58;;;;;;;1999.90;999.90;;;;;;;15.04;43.03;101371.56;4799594;29;99170;-71
2021/07/23 04:10:29;;;;;;;1999.90;999.90;;;;;;;15.04;43.32;101382.31;4799754;29;97828;-71
2021/07/23 04:12:57;;;;;;;1999.90;999.90;;;;;;;15.03;43.40;101375.13;4814534;29;97693;-71
2021/07/23 04:15:27;;;;;;;1999.90;999.90;;;;;;;15.02;43.37;101376.94;4806999;29;98819;-71
2021/07/23 04:18:09;;;;;;;1999.90;999.90;;;;;;;15.03;43.38;101375.13;4807714;29;98288;-71
2021/07/23 04:20:55;;;;;;;1999.90;999.90;;;;;;;15.02;43.44;101376.94;4779330;29;98527;-70
2021/07/23 04:23:23;;;;;;;1999.90;999.90;;;;;;;15.02;43.46;101376.94;4790523;29;97575;-70
2021/07/23 04:25:52;;;;;;;1999.90;999.90;;;;;;;15.01;43.25;101376.88;4791170;29;97056;-70
2021/07/23 04:28:24;;;;;;;1999.90;999.90;;;;;;;15.02;43.14;101376.00;4789879;29;100813;-69
2021/07/23 04:30:52;;;;;;;1999.90;999.90;;;;;;;15.01;43.30;101377.78;4805531;29;97674;-69
2021/07/23 04:33:22;;;;;;;1999.90;999.90;;;;;;;14.99;43.37;101371.50;4791892;29;97144;-70
2021/07/23 04:36:40;;;;;;;1999.90;999.90;;;;;;;15.01;43.30;101379.56;4799241;29;98120;-69
2021/07/23 04:39:28;;;;;;;1999.90;999.90;;;;;;;14.98;43.40;101376.84;4802876;29;100617;-70
2021/07/23 04:42:04;;;;;;;1999.90;999.90;;;;;;;14.97;43.50;101383.09;4823488;29;101228;-71
2021/07/23 04:44:33;;;;;;;1999.90;999.90;;;;;;;14.96;43.57;101378.59;4808444;29;97119;-71
2021/07/23 04:47:02;;;;;;;1999.90;999.90;;;;;;;14.95;43.34;101377.72;4809581;29;97701;-71
2021/07/23 04:49:36;;;;;;;1999.90;999.90;;;;;;;14.96;43.46;101386.66;4809643;29;97673;-71
2021/07/23 04:52:09;;;;;;;1999.90;999.90;;;;;;;14.94;43.28;101385.72;4807537;29;98050;-71
2021/07/23 04:55:15;;;;;;;1999.90;999.90;;;;;;;14.91;43.58;101386.59;4807691;29;98116;-71
2021/07/23 04:58:13;;;;;;;1999.90;999.90;;;;;;;14.88;43.90;101388.34;4798418;29;99271;-71
2021/07/23 05:00:41;;;;;;;1999.90;999.90;;;;;;;14.87;44.01;101384.75;4784603;29;99656;-71
2021/07/23 05:03:09;;;;;;;1999.90;999.90;;;;;;;14.88;43.88;101389.22;4805549;29;97975;-71
2021/07/23 05:05:37;;;;;;;1999.90;999.90;;;;;;;14.89;43.73;101382.09;4785753;29;97950;-71
2021/07/23 05:08:05;;;;;;;1999.90;999.90;;;;;;;14.91;43.59;101388.38;4791067;29;97617;-71
2021/07/23 05:10:33;;;;;;;1999.90;999.90;;;;;;;14.92;44.02;101392.84;4809845;29;97761;-72
2021/07/23 05:13:02;;;;;;;1999.90;999.90;;;;;;;14.91;44.12;101391.06;4792509;29;99470;-71
2021/07/23 05:15:32;;;;;;;1999.90;999.90;;;;;;;14.92;44.17;101399.13;4808197;29;98070;-71
2021/07/23 05:18:00;;;;;;;1999.90;999.90;;;;;;;14.93;43.96;101395.56;4781683;29;97617;-71
2021/07/23 05:20:28;;;;;;;1999.90;999.90;;;;;;;14.96;43.74;101394.69;4790875;29;97877;-71
2021/07/23 05:22:56;;;;;;;1999.90;999.90;;;;;;;14.97;43.73;101397.38;4781825;29;98530;-71
2021/07/23 05:25:24;;;;;;;1999.90;999.90;;;;;;;14.94;43.70;101400.03;4783467;29;99433;-71
2021/07/23 05:27:53;;;;;;;1999.90;999.90;;;;;;;14.95;44.01;101400.94;4790699;29;97957;-71
2021/07/23 05:30:21;;;;;;;1999.90;999.90;;;;;;;14.95;43.90;101392.91;4781398;29;97758;-71
2021/07/23 05:32:50;;;;;;;1999.90;999.90;;;;;;;14.97;43.83;101393.84;4780474;29;101445;-71
2021/07/23 05:35:18;;;;;;;1999.90;999.90;;;;;;;14.98;43.93;101391.16;4799710;29;97765;-71
2021/07/23 05:37:46;;;;;;;1999.90;999.90;;;;;;;15.00;43.55;101385.81;4808265;29;96953;-71
2021/07/23 05:40:16;;;;;;;1999.90;999.90;;;;;;;15.01;43.56;101392.97;4807181;29;99084;-71
2021/07/23 05:42:44;;;;;;;1999.90;999.90;;;;;;;14.98;43.93;101388.47;4808083;29;97215;-71
2021/07/23 05:45:12;;;;;;;1999.90;999.90;;;;;;;14.91;43.99;101393.75;4808599;29;97114;-71
2021/07/23 05:47:40;;;;;;;1999.90;999.90;;;;;;;14.84;44.11;101387.41;4806949;29;97795;-71
2021/07/23 05:50:10;;;;;;;1999.90;999.90;;;;;;;14.84;44.28;101391.88;4810025;29;98532;-71
2021/07/23 05:52:38;;;;;;;1999.90;999.90;;;;;;;14.86;44.63;101390.09;4809063;29;99286;-71
2021/07/23 05:55:07;;;;;;;1999.90;999.90;;;;;;;14.90;44.97;101387.47;4811468;29;97532;-71
2021/07/23 05:57:36;;;;;;;1999.90;999.90;;;;;;;14.94;44.78;101391.09;4811655;29;96892;-71
2021/07/23 06:00:06;;;;;;;1999.90;999.90;;;;;;;14.97;44.25;101385.78;4806606;29;100121;-71
2021/07/23 06:02:39;;;;;;;1999.90;999.90;;;;;;;14.98;44.49;101395.63;4806042;29;97299;-71
2021/07/23 06:05:09;;;;;;;1999.90;999.90;;;;;;;15.00;44.38;101386.72;4793511;29;97180;-72
2021/07/23 06:07:37;;;;;;;1999.90;999.90;;;;;;;15.03;44.53;101388.53;4791822;29;97672;-71
2021/07/23 06:10:06;;;;;;;1999.90;999.90;;;;;;;15.03;44.42;101391.19;4809103;29;99178;-71
2021/07/23 06:12:34;;;;;;;1999.90;999.90;;;;;;;15.04;44.52;101393.03;4809001;29;97576;-71
2021/07/23 06:15:02;;;;;;;1999.90;999.90;;;;;;;15.00;44.62;101397.44;4809589;29;97472;-71
2021/07/23 06:17:29;;;;;;;1999.90;999.90;;;;;;;15.01;44.44;101392.97;4807738;29;97136;-71
2021/07/23 06:19:57;;;;;;;1999.90;999.90;;;;;;;15.05;44.26;101393.03;4808730;29;98834;-71
2021/07/23 06:22:27;;;;;;;1999.90;999.90;;;;;;;15.08;43.93;101394.88;4806739;29;99689;-71
2021/07/23 06:24:56;;;;;;;1999.90;999.90;;;;;;;15.10;44.15;101391.31;4809021;29;97792;-71
2021/07/23 06:27:24;;;;;;;1999.90;999.90;;;;;;;15.14;44.15;101387.78;4809489;29;97694;-71
2021/07/23 06:29:53;;;;;;;1999.90;999.90;;;;;;;15.19;44.04;101395.91;4821189;29;99408;-71
2021/07/23 06:32:22;;;;;;;1999.90;999.90;;;;;;;15.21;44.22;101385.19;4789002;29;99529;-71
2021/07/23 06:34:50;;;;;;;1999.90;999.90;;;;;;;15.23;43.81;101386.97;4789660;29;97542;-71
2021/07/23 06:37:20;;;;;;;1999.90;999.90;;;;;;;15.26;43.98;101389.72;4794987;29;97086;-70
2021/07/23 06:39:51;;;;;;;1999.90;999.90;;;;;;;15.24;43.58;101391.47;4808066;29;98138;-71
2021/07/23 06:42:20;;;;;;;1999.90;999.90;;;;;;;15.29;43.61;101386.16;4807567;29;96963;-71
2021/07/23 06:44:48;;;;;;;1999.90;999.90;;;;;;;15.31;43.35;101387.09;4806546;29;97887;-71
2021/07/23 06:47:16;;;;;;;1999.90;999.90;;;;;;;15.28;43.69;101396.00;4812023;29;97743;-71
2021/07/23 06:49:44;;;;;;;1999.90;999.90;;;;;;;15.30;43.48;101380.88;4796779;29;97685;-71
2021/07/23 06:52:12;;;;;;;1999.90;999.90;;;;;;;15.33;43.66;101388.03;4812020;29;97700;-72
2021/07/23 06:54:41;;;;;;;1999.90;999.90;;;;;;;15.38;43.45;101381.84;4813127;29;97256;-71
2021/07/23 06:57:10;;;;;;;1999.90;999.90;;;;;;;15.38;43.06;101392.56;4812164;29;97149;-71
2021/07/23 06:59:37;;;;;;;1999.90;999.90;;;;;;;15.37;43.03;101388.09;4801796;29;98783;-71
2021/07/23 07:02:05;;;;;;;1999.90;999.90;;;;;;;15.40;43.22;101382.75;4804134;29;97800;-71
2021/07/23 07:04:33;;;;;;;1999.90;999.90;;;;;;;15.35;43.50;101383.59;4810754;29;97082;-72
2021/07/23 07:07:01;;;;;;;1999.90;999.90;;;;;;;15.35;43.39;101372.84;4794354;29;98365;-71
2021/07/23 07:09:29;;;;;;;1999.90;999.90;;;;;;;15.38;42.95;101384.53;4792900;29;99806;-72
2021/07/23 07:11:57;;;;;;;1999.90;999.90;;;;;;;15.42;43.36;101385.44;4811148;29;98784;-71
2021/07/23 07:14:27;;;;;;;1999.90;999.90;;;;;;;15.46;42.77;101382.84;4810584;29;97299;-71
2021/07/23 07:16:56;;;;;;;1999.90;999.90;;;;;;;15.48;43.09;101386.44;4810957;29;98211;-72
2021/07/23 07:19:24;;;;;;;1999.90;999.90;;;;;;;15.48;42.72;101383.75;4810672;29;99893;-72
2021/07/23 07:21:51;;;;;;;1999.90;999.90;;;;;;;15.41;43.06;101394.38;4814792;29;97622;-71
2021/07/23 07:24:20;;;;;;;1999.90;999.90;;;;;;;15.37;43.28;101382.72;4814106;29;98505;-72
2021/07/23 07:26:49;;;;;;;1999.90;999.90;;;;;;;15.34;43.34;101389.84;4810345;29;97849;-72
2021/07/23 07:29:17;;;;;;;1999.90;999.90;;;;;;;15.33;43.39;101386.25;4810401;29;99440;-70
2021/07/23 07:31:46;;;;;;;1999.90;999.90;;;;;;;15.32;43.28;101381.75;4811793;29;97644;-71
2021/07/23 07:34:14;;;;;;;1999.90;999.90;;;;;;;15.38;43.47;101384.53;4814934;29;97135;-71
2021/07/23 07:36:42;;;;;;;1999.90;999.90;;;;;;;15.45;43.72;101385.50;4813683;29;96970;-71
2021/07/23 07:39:10;;;;;;;1999.90;999.90;;;;;;;15.47;43.26;101383.72;4811938;29;97776;-71
2021/07/23 07:41:38;;;;;;;1999.90;999.90;;;;;;;15.51;43.25;101381.09;4798383;29;97727;-71
2021/07/23 07:44:07;;;;;;;1999.90;999.90;;;;;;;15.56;43.25;101383.81;4812431;29;97935;-71
2021/07/23 07:46:35;;;;;;;1999.90;999.90;;;;;;;15.58;43.32;101385.63;4814021;29;97744;-71
2021/07/23 07:49:04;;;;;;;1999.90;999.90;;;;;;;15.60;43.07;101386.53;4813168;29;99429;-71
2021/07/23 07:51:32;;;;;;;1999.90;999.90;;;;;;;15.63;42.87;101389.25;4814322;29;97467;-72
2021/07/23 07:54:00;;;;;;;1999.90;999.90;;;;;;;15.64;42.71;101385.69;4812178;29;97303;-72
2021/07/23 07:56:27;;;;;;;1999.90;999.90;;;;;;;15.65;42.42;101384.81;4826827;29;98320;-72
2021/07/23 07:58:55;;;;;;;1999.90;999.90;;;;;;;15.70;42.48;101380.38;4812181;29;99851;-72
2021/07/23 08:01:23;;;;;;;1999.90;999.90;;;;;;;15.72;42.04;101393.84;4813373;29;97828;-72
2021/07/23 08:03:51;;;;;;;1999.90;999.90;;;;;;;15.68;41.34;101392.91;4819858;29;97124;-72
2021/07/23 08:06:22;;;;;;;1999.90;999.90;;;;;;;15.67;41.41;101388.41;4798268;29;96941;-71
2021/07/23 08:08:51;;;;;;;1999.90;999.90;;;;;;;15.71;41.15;101384.88;4813694;29;98306;-72
2021/07/23 08:11:19;;;;;;;1999.90;999.90;;;;;;;15.77;41.22;101389.41;4813372;29;100318;-72
2021/07/23 08:13:47;;;;;;;1999.90;999.90;;;;;;;15.77;41.48;101384.03;4814068;29;97025;-71
2021/07/23 08:16:15;;;;;;;1999.90;999.90;;;;;;;15.79;41.29;101377.81;4812331;29;97269;-71
2021/07/23 08:18:43;;;;;;;1999.90;999.90;;;;;;;15.85;40.89;101383.19;4806689;29;97725;-72
2021/07/23 08:21:11;;;;;;;1999.90;999.90;;;;;;;15.92;41.12;101381.50;4804182;29;99479;-72
2021/07/23 08:23:40;;;;;;;1999.90;999.90;;;;;;;15.96;40.99;101375.25;4808197;29;97420;-72
2021/07/23 08:26:08;;;;;;;1999.90;999.90;;;;;;;16.01;41.11;101378.91;4818942;29;97909;-72
2021/07/23 08:28:36;;;;;;;1999.90;999.90;;;;;;;16.04;41.03;101374.47;4808260;29;98318;-72
2021/07/23 08:31:04;;;;;;;1999.90;999.90;;;;;;;16.04;40.70;101373.56;4796902;29;99015;-70
2021/07/23 08:33:32;;;;;;;1999.90;999.90;;;;;;;16.06;40.85;101375.38;4769971;29;97772;-71
2021/07/23 08:36:01;;;;;;;1999.90;999.90;;;;;;;16.12;40.74;101376.31;4803144;29;97870;-70
2021/07/23 08:38:28;;;;;;;1999.90;999.90;;;;;;;16.16;40.54;101370.09;4806745;29;98806;-71
2021/07/23 08:40:58;;;;;;;1999.90;999.90;;;;;;;16.17;40.76;101367.41;4807947;29;100509;-72
2021/07/23 08:43:26;;;;;;;1999.90;999.90;;;;;;;16.19;40.49;101362.94;4806453;29;97968;-70
2021/07/23 08:45:55;;;;;;;1999.90;999.90;;;;;;;16.22;40.77;101356.69;4793382;29;97185;-72
2021/07/23 08:48:23;;;;;;;1999.90;999.90;;;;;;;16.27;40.34;101363.00;4810842;29;98342;-71
2021/07/23 08:50:51;;;;;;;1999.90;999.90;;;;;;;16.33;40.44;101365.72;4787853;29;97855;-71
2021/07/23 08:53:19;;;;;;;1999.90;999.90;;;;;;;16.39;40.14;101365.78;4811044;29;98318;-73
2021/07/23 08:55:46;;;;;;;1999.90;999.90;;;;;;;16.43;40.30;101357.75;4804515;29;97691;-73
2021/07/23 08:58:18;;;;;;;1999.90;999.90;;;;;;;16.45;39.91;101355.06;4790139;29;97885;-72
2021/07/23 09:00:46;;;;;;;1999.90;999.90;;;;;;;16.50;40.04;101350.63;4808963;29;98806;-72
2021/07/23 09:03:14;;;;;;;1999.90;999.90;;;;;;;16.54;39.93;101355.13;4807662;29;98633;-73
2021/07/23 09:05:45;;;;;;;1999.90;999.90;;;;;;;16.57;39.86;101350.66;4792986;29;97855;-72
2021/07/23 09:08:14;;;;;;;1999.90;999.90;;;;;;;16.59;39.85;101351.56;4807332;29;98611;-72
2021/07/23 09:10:42;;;;;;;1999.90;999.90;;;;;;;16.62;40.14;101348.91;4803894;29;98283;-72
2021/07/23 09:13:10;;;;;;;1999.90;999.90;;;;;;;16.62;39.81;101351.56;4805505;29;98066;-74
2021/07/23 09:15:41;;;;;;;1999.90;999.90;;;;;;;16.67;39.83;101346.25;4805511;29;98967;-74
2021/07/23 09:18:20;;;;;;;1999.90;999.90;;;;;;;16.70;39.95;101340.88;4817380;29;98147;-70
2021/07/23 09:20:54;;;;;;;1999.90;999.90;;;;;;;16.75;39.72;101352.56;4821946;29;100679;-73
2021/07/23 09:23:27;;;;;;;1999.90;999.90;;;;;;;16.81;40.08;101344.53;4802282;29;99917;-72
2021/07/23 09:25:54;;;;;;;1999.90;999.90;;;;;;;16.85;39.83;101349.94;4798950;29;98432;-71
2021/07/23 09:28:30;;;;;;;1999.90;999.90;;;;;;;16.87;39.93;101339.22;4799157;29;99705;-74
2021/07/23 09:31:01;;;;;;;1999.90;999.90;;;;;;;16.86;40.13;101337.38;4806514;29;99252;-73
2021/07/23 09:33:34;;;;;;;1999.90;999.90;;;;;;;16.86;39.93;101332.00;4806285;29;97563;-72
2021/07/23 09:36:03;;;;;;;1999.90;999.90;;;;;;;16.92;39.78;101332.06;4808268;29;98472;-73
2021/07/23 09:38:45;;;;;;;1999.90;999.90;;;;;;;16.95;39.86;101326.66;4805838;29;97718;-74
2021/07/23 09:41:15;;;;;;;1999.90;999.90;;;;;;;16.99;39.69;101328.47;4806195;29;98674;-74
2021/07/23 09:43:45;;;;;;;1999.90;999.90;;;;;;;17.00;39.55;101322.19;4805017;29;97120;-73
2021/07/23 09:46:33;;;;;;;1999.90;999.90;;;;;;;17.01;39.79;101322.22;4797918;29;98145;-73
2021/07/23 09:49:18;;;;;;;1999.90;999.90;;;;;;;17.05;40.01;101317.75;4806237;29;97734;-73
2021/07/23 09:51:47;;;;;;;1999.90;999.90;;;;;;;17.09;39.83;101309.69;4817064;29;98411;-73
2021/07/23 09:54:14;;;;;;;1999.90;999.90;;;;;;;17.14;39.73;101312.41;4807974;29;96819;-75
2021/07/23 09:56:43;;;;;;;1999.90;999.90;;;;;;;17.18;39.70;101313.31;4809472;29;96830;-74
2021/07/23 09:59:16;;;;;;;1999.90;999.90;;;;;;;17.22;39.55;101304.34;4807986;29;101895;-75
2021/07/23 10:01:45;;;;;;;1999.90;999.90;;;;;;;17.28;39.49;101302.56;4793383;29;98933;-75
2021/07/23 10:04:21;;;;;;;1999.90;999.90;;;;;;;17.30;39.73;101290.03;4808959;29;98171;-75
2021/07/23 10:06:55;;;;;;;1999.90;999.90;;;;;;;17.33;39.83;101291.81;4809906;29;97354;-74
2021/07/23 10:09:26;;;;;;;1999.90;999.90;;;;;;;17.37;39.83;101294.50;4792817;29;98735;-75
2021/07/23 10:11:55;;;;;;;1999.90;999.90;;;;;;;17.40;39.75;101290.97;4814358;29;97729;-74
2021/07/23 10:14:25;;;;;;;1999.90;999.90;;;;;;;17.43;39.49;101297.25;4811499;29;98126;-73
2021/07/23 10:16:54;;;;;;;1999.90;999.90;;;;;;;17.47;39.70;101285.59;4791278;29;98076;-76
2021/07/23 10:19:23;;;;;;;1999.90;999.90;;;;;;;17.52;39.46;101278.41;4805543;29;99168;-74
2021/07/23 10:21:55;;;;;;;1999.90;999.90;;;;;;;17.55;39.22;101286.47;4807129;29;101252;-72
2021/07/23 10:24:23;;;;;;;1999.90;999.90;;;;;;;17.58;38.99;101280.22;4806816;29;97409;-74
2021/07/23 10:26:51;;;;;;;1999.90;999.90;;;;;;;17.65;38.93;101280.22;4793078;29;96859;-72
2021/07/23 10:29:44;;;;;;;1999.90;999.90;;;;;;;17.72;38.76;101278.41;4807776;29;98589;-72
2021/07/23 10:32:33;;;;;;;1999.90;999.90;;;;;;;17.77;38.90;101266.75;4781076;29;98215;-71
2021/07/23 10:35:02;;;;;;;1999.90;999.90;;;;;;;17.83;39.20;101265.84;4810566;29;99082;-72
2021/07/23 10:37:51;;;;;;;1999.90;999.90;;;;;;;17.89;39.07;101255.94;4786752;29;98100;-73
2021/07/23 10:40:19;;;;;;;1999.90;999.90;;;;;;;17.94;38.79;101264.03;4807669;29;98755;-73
2021/07/23 10:42:48;;;;;;;1999.90;999.90;;;;;;;18.00;38.68;101256.84;4807824;29;101054;-72
2021/07/23 10:45:19;;;;;;;1999.90;999.90;;;;;;;18.07;38.39;101262.25;4803222;29;98490;-75
2021/07/23 10:47:49;;;;;;;1999.90;999.90;;;;;;;18.12;38.43;101261.34;4807013;29;97642;-74
2021/07/23 10:50:48;;;;;;;1999.90;999.90;;;;;;;18.18;37.98;101255.03;4800398;29;100484;-75
2021/07/23 10:53:35;;;;;;;1999.90;999.90;;;;;;;18.26;37.82;101250.53;4808230;29;97576;-71
2021/07/23 10:56:03;;;;;;;1999.90;999.90;;;;;;;18.30;37.58;101250.50;4788578;29;98442;-72
2021/07/23 10:58:32;;;;;;;1999.90;999.90;;;;;;;18.34;37.45;101252.31;4787818;29;97530;-70
2021/07/23 11:01:02;;;;;;;1999.90;999.90;;;;;;;18.37;37.35;101246.03;4805198;29;100145;-72
2021/07/23 11:03:51;;;;;;;1999.90;999.90;;;;;;;18.38;36.90;101245.09;4820443;29;100696;-71